createdAt,value
2023-01-29T00:44:25.949Z,100308.47
2023-01-29T00:47:05.231Z,100321.22
2023-01-29T00:50:06.826Z,100293.75
2023-01-29T00:59:42.910Z,100308.38
2023-01-29T01:02:55.330Z,100309.09
2023-01-29T05:09:30.925Z,100338.25
2023-01-29T05:12:00.708Z,100349.06
2023-01-29T05:14:33.035Z,100349.72
2023-01-29T05:17:06.263Z,100348.41
2023-01-29T05:19:35.927Z,100340.03
2023-01-29T05:22:08.634Z,100336.50
2023-01-29T05:24:46.489Z,100333.31
2023-01-29T05:27:50.348Z,100339.16
2023-01-29T05:30:19.757Z,100342.72
2023-01-29T05:32:48.926Z,100332.94
2023-01-29T05:35:17.500Z,100334.34
2023-01-29T05:37:46.747Z,100332.56
2023-01-29T05:40:15.204Z,100319.69
2023-01-29T05:42:45.194Z,100335.28
2023-01-29T05:45:16.159Z,100332.16
2023-01-29T05:47:48.790Z,100343.06
2023-01-29T05:50:19.118Z,100350.09
2023-01-29T05:52:51.050Z,100344.69
2023-01-29T05:55:20.910Z,100334.97
2023-01-29T05:57:49.978Z,100344.28
2023-01-29T06:00:21.597Z,100349.91
2023-01-29T06:02:53.574Z,100344.75
2023-01-29T06:05:24.867Z,100341.28
2023-01-29T06:07:54.189Z,100348.34
2023-01-29T06:10:24.408Z,100331.03
2023-01-29T06:12:53.750Z,100336.78
2023-01-29T06:15:22.137Z,100337.00
2023-01-29T06:17:51.867Z,100324.53
2023-01-29T06:20:21.360Z,100327.38
2023-01-29T06:22:58.840Z,100328.47
2023-01-29T06:25:39.349Z,100328.84
2023-01-29T06:31:11.994Z,100307.00
2023-01-29T06:36:34.296Z,100324.06
2023-01-29T06:47:56.217Z,100323.91
2023-01-29T06:50:26.039Z,100328.09
2023-01-29T06:52:54.807Z,100344.22
2023-01-29T06:55:23.183Z,100348.50
2023-01-29T06:57:51.029Z,100354.69
2023-01-29T07:00:19.134Z,100348.13
2023-01-29T07:02:49.845Z,100350.28
2023-01-29T07:05:18.057Z,100355.00
2023-01-29T07:07:45.667Z,100345.38
2023-01-29T07:10:12.953Z,100342.66
2023-01-29T07:12:40.022Z,100352.78
2023-01-29T07:15:09.669Z,100350.38
2023-01-29T07:17:37.850Z,100350.16
2023-01-29T07:20:06.379Z,100357.56
2023-01-29T07:22:34.117Z,100349.22
2023-01-29T07:25:01.034Z,100350.13
2023-01-29T07:27:28.282Z,100340.72
2023-01-29T07:29:55.872Z,100346.19
2023-01-29T07:32:24.063Z,100347.59
2023-01-29T07:34:51.139Z,100351.69
2023-01-29T07:44:41.937Z,100347.63
2023-01-29T07:47:16.368Z,100342.97
2023-01-29T07:49:48.543Z,100350.59
2023-01-29T07:52:27.360Z,100345.69
2023-01-29T07:57:44.709Z,100340.34
2023-01-29T08:00:23.780Z,100341.97
2023-01-29T08:03:11.380Z,100347.75
2023-01-29T08:05:50.354Z,100348.69
2023-01-29T08:08:26.912Z,100358.66
2023-01-29T08:10:55.711Z,100352.94
2023-01-29T08:13:39.530Z,100353.59
2023-01-29T08:16:12.458Z,100354.91
2023-01-29T08:18:48.825Z,100355.28
2023-01-29T08:21:22.448Z,100342.78
2023-01-29T08:23:53.061Z,100356.75
2023-01-29T08:26:27.487Z,100350.13
2023-01-29T08:28:59.901Z,100352.91
2023-01-29T08:31:32.969Z,100348.34
2023-01-29T08:34:08.238Z,100343.19
2023-01-29T08:36:41.992Z,100349.53
2023-01-29T08:39:15.486Z,100348.63
2023-01-29T08:41:44.777Z,100340.66
2023-01-29T08:44:16.426Z,100346.16
2023-01-29T08:54:07.756Z,100368.75
2023-01-29T08:56:34.753Z,100381.16
2023-01-29T08:59:04.438Z,100382.56
2023-01-29T09:01:34.414Z,100386.34
2023-01-29T09:04:03.256Z,100372.66
2023-01-29T09:06:33.796Z,100383.72
2023-01-29T09:09:03.689Z,100379.94
2023-01-29T09:11:34.738Z,100376.31
2023-01-29T09:14:02.407Z,100379.03
2023-01-29T09:16:32.239Z,100378.47
2023-01-29T09:19:02.001Z,100370.91
2023-01-29T09:21:29.997Z,100385.91
2023-01-29T09:23:57.819Z,100390.88
2023-01-29T09:26:27.060Z,100372.91
2023-01-29T09:28:54.719Z,100373.19
2023-01-29T09:31:24.280Z,100382.88
2023-01-29T09:33:55.866Z,100368.81
2023-01-29T09:36:26.429Z,100383.78
2023-01-29T09:38:55.828Z,100382.53
2023-01-29T09:41:48.256Z,100384.69
2023-01-29T09:44:36.908Z,100387.72
2023-01-29T09:47:06.222Z,100384.69
2023-01-29T09:49:42.683Z,100381.75
2023-01-29T09:52:27.593Z,100391.63
2023-01-29T09:55:00.462Z,100385.84
2023-01-29T09:57:56.557Z,100391.06
2023-01-29T10:00:31.955Z,100387.25
2023-01-29T10:02:59.483Z,100398.97
2023-01-29T10:05:54.355Z,100395.16
2023-01-29T10:08:42.364Z,100370.25
2023-01-29T10:11:22.581Z,100384.13
2023-01-29T10:14:15.481Z,100383.66
2023-01-29T10:16:58.113Z,100382.75
2023-01-29T10:19:43.839Z,100369.41
2023-01-29T10:22:45.962Z,100366.06
2023-01-29T10:25:21.079Z,100368.75
2023-01-29T10:27:57.074Z,100363.88
2023-01-29T10:30:41.511Z,100367.28
2023-01-29T10:33:19.166Z,100368.09
2023-01-29T10:35:55.902Z,100361.72
2023-01-29T10:38:46.320Z,100363.81
2023-01-29T10:41:26.341Z,100361.78
2023-01-29T10:44:14.670Z,100353.69
2023-01-29T10:51:21.024Z,100340.38
2023-01-29T10:54:15.869Z,100333.63
2023-01-29T10:57:08.188Z,100331.03
2023-01-29T10:59:56.048Z,100323.41
2023-01-29T11:08:35.779Z,100321.31
2023-01-29T11:14:29.468Z,100311.00
2023-01-29T11:17:07.772Z,100305.25
2023-01-29T11:19:41.043Z,100297.75
2023-01-29T11:22:31.954Z,100300.09
2023-01-29T11:25:25.320Z,100303.91
2023-01-29T11:28:03.203Z,100290.75
2023-01-29T11:37:25.471Z,100268.22
2023-01-29T12:11:36.045Z,100192.44
2023-01-29T12:17:17.435Z,100190.50
2023-01-29T12:19:55.627Z,100183.22
2023-01-29T12:28:53.853Z,100163.56
2023-01-29T20:03:00.861Z,100000.59
2023-01-29T20:08:38.250Z,100000.84
2023-01-29T20:19:26.521Z,99996.94
2023-01-29T20:24:49.049Z,99997.16
2023-01-29T20:27:25.182Z,100006.91
2023-01-29T20:29:58.694Z,100010.34
2023-01-29T20:32:38.855Z,100008.84
2023-01-29T20:38:04.595Z,100016.53
2023-01-29T20:40:37.552Z,100016.31
2023-01-29T20:45:51.467Z,100019.84
2023-01-29T20:48:24.726Z,100017.91
2023-01-29T20:50:59.391Z,100015.09
2023-01-29T20:53:32.905Z,100010.19
2023-01-29T20:56:06.160Z,100004.88
2023-01-29T20:58:38.394Z,100002.69
2023-01-29T21:01:14.334Z,100004.47
2023-01-29T21:03:48.200Z,99995.56
2023-01-29T21:06:18.216Z,99991.31
2023-01-29T21:08:51.478Z,100005.81
2023-01-29T21:11:21.734Z,100004.56
2023-01-29T21:13:54.659Z,99995.88
2023-01-29T21:16:26.721Z,100000.50
2023-01-29T21:18:59.323Z,100004.88
2023-01-29T21:21:29.956Z,100003.44
2023-01-29T21:24:02.376Z,100014.31
2023-01-29T21:26:33.218Z,100002.03
2023-01-29T21:29:03.806Z,100005.81
2023-01-29T21:31:38.156Z,99992.63
2023-01-29T21:34:09.831Z,100001.41
2023-01-29T21:36:41.353Z,99998.31
2023-01-29T21:39:17.632Z,100001.72
2023-01-29T21:42:10.363Z,100010.53
2023-01-29T21:44:39.611Z,100005.63
2023-01-29T21:47:14.721Z,99993.59
2023-01-29T21:49:44.386Z,99996.94
2023-01-29T21:52:15.294Z,100001.75
2023-01-29T21:54:48.994Z,100002.72
2023-01-29T21:57:18.590Z,100005.19
2023-01-29T21:59:52.874Z,100004.50
2023-01-29T22:02:24.111Z,99985.03
2023-01-29T22:04:55.670Z,99997.44
2023-01-29T22:07:25.616Z,99999.72
2023-01-29T22:09:55.298Z,99992.63
2023-01-29T22:12:25.541Z,99982.81
2023-01-29T22:14:55.543Z,99977.28
2023-01-29T22:17:24.023Z,99975.63
2023-01-29T22:19:53.878Z,99970.94
2023-01-29T22:22:26.362Z,99962.59
2023-01-29T22:24:55.392Z,99965.81
2023-01-29T22:27:25.463Z,99973.66
2023-01-29T22:29:54.007Z,99952.81
2023-01-29T22:32:23.266Z,99951.34
2023-01-29T22:34:54.257Z,99963.13
2023-01-29T22:37:22.701Z,99961.25
2023-01-29T22:39:51.107Z,99949.56
2023-01-29T22:42:20.990Z,99956.34
2023-01-29T22:44:49.108Z,99958.25
2023-01-29T22:47:17.498Z,99952.81
2023-01-29T22:49:45.765Z,99947.91
2023-01-29T22:52:13.115Z,99940.50
2023-01-29T22:54:41.897Z,99922.34
2023-01-29T22:57:14.293Z,99922.47
2023-01-29T22:59:41.466Z,99920.34
2023-01-29T23:02:09.217Z,99923.19
2023-01-29T23:04:36.685Z,99922.97
2023-01-29T23:07:03.973Z,99918.28
2023-01-29T23:09:31.111Z,99912.75
2023-01-29T23:11:57.794Z,99898.06
2023-01-29T23:14:24.534Z,99900.56
2023-01-29T23:16:51.259Z,99891.50
2023-01-29T23:19:20.561Z,99878.28
2023-01-29T23:21:47.979Z,99887.41
2023-01-29T23:24:16.083Z,99880.44
2023-01-29T23:27:01.926Z,99880.34
2023-01-29T23:29:28.669Z,99872.94
2023-01-29T23:31:55.421Z,99876.16
2023-01-29T23:34:22.399Z,99876.91
2023-01-29T23:36:49.443Z,99870.97
2023-01-29T23:39:16.902Z,99886.69
2023-01-29T23:41:44.268Z,99887.63
2023-01-29T23:44:11.141Z,99882.34
2023-01-29T23:46:38.271Z,99884.94
2023-01-29T23:49:05.571Z,99883.25
2023-01-29T23:51:33.247Z,99880.88
2023-01-29T23:53:59.984Z,99867.00
2023-01-29T23:56:26.933Z,99871.88
2023-01-29T23:58:59.888Z,99881.69
